createdAt,value
2023-03-29T00:00:35.778Z,5.00
2023-03-29T00:03:04.209Z,5.00
2023-03-29T00:05:35.418Z,5.00
2023-03-29T00:08:04.481Z,5.00
2023-03-29T00:10:34.049Z,5.00
2023-03-29T00:13:02.166Z,5.10
2023-03-29T00:15:30.511Z,5.10
2023-03-29T00:17:58.622Z,5.10
2023-03-29T00:20:27.047Z,5.10
2023-03-29T00:22:56.571Z,5.10
2023-03-29T00:25:24.595Z,5.10
2023-03-29T00:27:52.665Z,5.10
2023-03-29T00:30:20.828Z,5.10
2023-03-29T00:32:48.890Z,5.10
2023-03-29T00:35:17.210Z,5.10
2023-03-29T00:37:47.163Z,5.00
2023-03-29T00:40:16.788Z,5.00
2023-03-29T00:42:46.368Z,5.10
2023-03-29T00:45:21.905Z,5.00
2023-03-29T00:47:52.821Z,5.10
2023-03-29T00:50:25.763Z,5.00
2023-03-29T00:53:00.109Z,5.00
2023-03-29T00:55:33.515Z,5.00
2023-03-29T00:58:02.714Z,5.00
2023-03-29T01:00:34.396Z,5.00
2023-03-29T01:03:07.147Z,5.00
2023-03-29T01:05:39.358Z,5.00
2023-03-29T01:08:12.476Z,5.10
2023-03-29T01:10:44.574Z,5.00
2023-03-29T01:13:18.239Z,5.00
2023-03-29T01:15:47.973Z,5.00
2023-03-29T01:18:16.094Z,5.00
2023-03-29T01:21:03.488Z,5.00
2023-03-29T01:23:51.104Z,5.10
2023-03-29T01:26:29.937Z,5.10
2023-03-29T01:29:04.171Z,5.10
2023-03-29T01:31:35.443Z,5.10
2023-03-29T01:34:09.789Z,5.10
2023-03-29T01:36:42.650Z,5.10
2023-03-29T01:39:10.644Z,5.10
2023-03-29T01:41:48.108Z,5.10
2023-03-29T01:44:22.071Z,5.10
2023-03-29T01:46:56.119Z,5.10
2023-03-29T01:49:28.350Z,5.10
2023-03-29T01:51:59.628Z,5.00
2023-03-29T01:54:33.325Z,5.10
2023-03-29T01:57:04.719Z,5.00
2023-03-29T01:59:38.452Z,5.00
2023-03-29T02:02:12.298Z,5.00
2023-03-29T02:04:45.845Z,5.00
2023-03-29T02:07:15.984Z,4.90
2023-03-29T02:09:44.884Z,4.90
2023-03-29T02:12:14.524Z,4.90
2023-03-29T02:14:44.036Z,4.90
2023-03-29T02:17:18.397Z,4.80
2023-03-29T02:19:51.192Z,4.90
2023-03-29T02:22:24.888Z,4.80
2023-03-29T02:24:59.149Z,4.80
2023-03-29T02:27:29.095Z,4.80
2023-03-29T02:29:59.088Z,4.80
2023-03-29T02:32:32.805Z,4.80
2023-03-29T02:35:06.625Z,4.80
2023-03-29T02:37:41.031Z,4.70
2023-03-29T02:40:12.655Z,4.70
2023-03-29T02:42:42.356Z,4.70
2023-03-29T02:45:14.275Z,4.70
2023-03-29T02:47:46.350Z,4.70
2023-03-29T02:50:15.011Z,4.70
2023-03-29T02:52:48.512Z,4.70
2023-03-29T02:55:20.327Z,4.70
2023-03-29T02:57:48.307Z,4.70
2023-03-29T03:00:19.864Z,4.70
2023-03-29T03:02:50.854Z,4.70
2023-03-29T03:05:19.364Z,4.70
2023-03-29T03:07:47.438Z,4.70
2023-03-29T03:10:15.951Z,4.60
2023-03-29T03:12:43.925Z,4.60
2023-03-29T03:15:13.451Z,4.60
2023-03-29T03:17:42.831Z,4.60
2023-03-29T03:20:13.792Z,4.60
2023-03-29T03:22:43.989Z,4.50
2023-03-29T03:25:12.991Z,4.50
2023-03-29T03:27:41.357Z,4.50
2023-03-29T03:30:11.406Z,4.50
2023-03-29T03:32:43.577Z,4.50
2023-03-29T03:35:12.031Z,4.40
2023-03-29T03:37:40.253Z,4.40
2023-03-29T03:40:11.669Z,4.40
2023-03-29T03:42:40.204Z,4.40
2023-03-29T03:45:09.827Z,4.40
2023-03-29T03:47:38.522Z,4.40
2023-03-29T03:50:09.657Z,4.30
2023-03-29T03:52:37.648Z,4.30
2023-03-29T03:55:06.310Z,4.30
2023-03-29T03:57:37.451Z,4.30
2023-03-29T04:00:19.167Z,4.30
2023-03-29T04:02:48.246Z,4.30
2023-03-29T04:05:18.242Z,4.30
2023-03-29T04:07:46.259Z,4.30
2023-03-29T04:10:14.622Z,4.30
2023-03-29T04:12:42.783Z,4.30
2023-03-29T04:15:12.177Z,4.30
2023-03-29T04:17:40.538Z,4.30
2023-03-29T04:20:11.628Z,4.30
2023-03-29T04:22:41.787Z,4.40
2023-03-29T04:25:11.610Z,4.30
2023-03-29T04:27:40.379Z,4.30
2023-03-29T04:30:09.730Z,4.30
2023-03-29T04:32:38.081Z,4.30
2023-03-29T04:35:06.847Z,4.30
2023-03-29T04:37:35.106Z,4.30
2023-03-29T04:40:08.692Z,4.30
2023-03-29T04:42:37.321Z,4.30
2023-03-29T04:45:06.955Z,4.30
2023-03-29T04:47:36.566Z,4.30
2023-03-29T04:50:05.090Z,4.30
2023-03-29T04:52:33.454Z,4.30
2023-03-29T04:55:02.019Z,4.30
2023-03-29T04:57:31.630Z,4.30
2023-03-29T04:59:59.632Z,4.30
2023-03-29T05:02:27.709Z,4.30
2023-03-29T05:04:55.681Z,4.40
2023-03-29T05:07:23.649Z,4.30
2023-03-29T05:09:51.982Z,4.40
2023-03-29T05:12:19.990Z,4.30
2023-03-29T05:14:49.315Z,4.30
2023-03-29T05:17:17.295Z,4.30
2023-03-29T05:19:45.289Z,4.30
2023-03-29T05:22:13.279Z,4.30
2023-03-29T05:24:42.107Z,4.40
2023-03-29T05:27:10.100Z,4.40
2023-03-29T05:29:38.051Z,4.40
2023-03-29T05:32:08.121Z,4.40
2023-03-29T05:34:36.464Z,4.40
2023-03-29T05:37:04.646Z,4.40
2023-03-29T05:39:35.152Z,4.40
2023-03-29T05:42:05.886Z,4.40
2023-03-29T05:44:34.267Z,4.40
2023-03-29T05:47:02.350Z,4.40
2023-03-29T05:49:31.908Z,4.30
2023-03-29T05:52:00.155Z,4.40
2023-03-29T05:54:29.219Z,4.40
2023-03-29T05:56:57.186Z,4.40
2023-03-29T05:59:28.566Z,4.40
2023-03-29T06:01:56.627Z,4.40
2023-03-29T06:04:25.421Z,4.40
2023-03-29T06:06:55.065Z,4.40
2023-03-29T06:09:23.160Z,4.40
2023-03-29T06:11:51.104Z,4.40
2023-03-29T06:14:19.493Z,4.40
2023-03-29T06:16:47.545Z,4.40
2023-03-29T06:19:15.983Z,4.40
2023-03-29T06:21:44.074Z,4.40
2023-03-29T06:24:13.428Z,4.40
2023-03-29T06:26:42.008Z,4.40
2023-03-29T06:29:10.306Z,4.40
2023-03-29T06:31:38.365Z,4.40
2023-03-29T06:34:06.680Z,4.40
2023-03-29T06:36:35.215Z,4.40
2023-03-29T06:39:06.490Z,4.40
2023-03-29T06:41:36.169Z,4.50
2023-03-29T06:44:05.013Z,4.50
2023-03-29T06:46:33.165Z,4.50
2023-03-29T06:49:01.417Z,4.50
2023-03-29T06:51:29.564Z,4.50
2023-03-29T06:53:57.600Z,4.60
2023-03-29T06:56:25.633Z,4.60
2023-03-29T06:58:55.035Z,4.60
2023-03-29T07:01:23.994Z,4.70
2023-03-29T07:03:52.074Z,4.70
2023-03-29T07:06:20.640Z,4.70
2023-03-29T07:08:52.328Z,4.70
2023-03-29T07:11:20.557Z,4.70
2023-03-29T07:13:49.092Z,4.80
2023-03-29T07:16:19.813Z,4.80
2023-03-29T07:18:48.039Z,4.90
2023-03-29T07:21:17.457Z,4.90
2023-03-29T07:23:45.440Z,4.90
2023-03-29T07:26:14.449Z,5.00
2023-03-29T07:28:57.437Z,5.00
2023-03-29T07:31:28.494Z,5.00
2023-03-29T07:33:56.777Z,5.10
2023-03-29T07:36:25.257Z,5.10
2023-03-29T07:38:56.311Z,5.20
2023-03-29T07:41:24.407Z,5.20
2023-03-29T07:43:52.386Z,5.20
2023-03-29T07:46:20.518Z,5.30
2023-03-29T07:48:49.920Z,5.30
2023-03-29T07:51:17.969Z,5.40
2023-03-29T07:53:45.950Z,5.40
2023-03-29T07:56:14.164Z,5.40
2023-03-29T07:58:42.102Z,5.40
2023-03-29T08:01:14.140Z,5.50
2023-03-29T08:03:43.610Z,5.50
2023-03-29T08:06:13.477Z,5.50
2023-03-29T08:08:41.706Z,5.60
2023-03-29T08:11:10.164Z,5.60
2023-03-29T08:13:38.209Z,5.60
2023-03-29T08:16:07.534Z,5.60
2023-03-29T08:18:35.574Z,5.70
2023-03-29T08:21:04.025Z,5.70
2023-03-29T08:23:33.761Z,5.70
2023-03-29T08:26:01.754Z,5.70
2023-03-29T08:28:29.753Z,5.70
2023-03-29T08:30:57.878Z,5.80
2023-03-29T08:33:26.153Z,5.80
2023-03-29T08:35:54.815Z,5.80
2023-03-29T08:38:24.904Z,5.80
2023-03-29T08:40:59.757Z,5.90
2023-03-29T08:43:44.334Z,5.90
2023-03-29T08:46:33.119Z,5.90
2023-03-29T08:49:06.209Z,5.90
2023-03-29T08:51:38.084Z,6.00
2023-03-29T08:54:10.661Z,6.00
2023-03-29T08:56:43.356Z,6.00
2023-03-29T08:59:20.005Z,6.10
2023-03-29T09:01:53.198Z,6.10
2023-03-29T09:04:25.954Z,6.10
2023-03-29T09:06:54.438Z,6.20
2023-03-29T09:09:26.668Z,6.20
2023-03-29T09:12:07.427Z,6.20
2023-03-29T09:14:49.709Z,6.30
2023-03-29T09:17:35.031Z,6.30
2023-03-29T09:20:12.459Z,6.40
2023-03-29T09:22:49.384Z,6.40
2023-03-29T09:25:24.908Z,6.40
2023-03-29T09:28:00.740Z,6.50
2023-03-29T09:30:33.279Z,6.50
2023-03-29T09:33:05.053Z,6.50
2023-03-29T09:35:38.231Z,6.60
2023-03-29T09:38:10.113Z,6.60
2023-03-29T09:40:43.275Z,6.60
2023-03-29T09:43:15.843Z,6.70
2023-03-29T09:45:48.090Z,6.70
2023-03-29T09:48:18.261Z,6.70
2023-03-29T09:50:48.459Z,6.80
2023-03-29T09:53:18.522Z,6.80
2023-03-29T09:55:50.296Z,6.90
2023-03-29T09:58:24.441Z,6.90
2023-03-29T10:00:53.610Z,7.00
2023-03-29T10:03:22.888Z,7.00
2023-03-29T10:05:53.290Z,7.10
2023-03-29T10:08:27.123Z,7.10
2023-03-29T10:10:55.444Z,7.20
2023-03-29T10:13:30.668Z,7.30
2023-03-29T10:16:02.477Z,7.40
2023-03-29T10:18:31.797Z,7.40
2023-03-29T10:21:02.596Z,7.40
2023-03-29T10:23:32.990Z,7.50
2023-03-29T10:26:01.835Z,7.50
2023-03-29T10:28:33.229Z,7.50
2023-03-29T10:31:04.065Z,7.50
2023-03-29T10:33:34.890Z,7.60
2023-03-29T10:36:07.865Z,7.60
2023-03-29T10:38:37.543Z,7.60
2023-03-29T10:41:10.068Z,7.60
2023-03-29T10:43:40.781Z,7.70
2023-03-29T10:46:10.907Z,7.70
2023-03-29T10:48:47.030Z,7.70
2023-03-29T10:51:16.168Z,7.70
2023-03-29T10:53:44.558Z,7.70
2023-03-29T10:56:29.906Z,7.70
2023-03-29T10:59:24.057Z,7.70
2023-03-29T11:02:44.918Z,7.70
2023-03-29T11:05:24.459Z,7.70
2023-03-29T11:08:05.600Z,7.70
2023-03-29T11:10:42.424Z,7.70
2023-03-29T11:13:18.247Z,7.70
2023-03-29T11:15:59.600Z,7.70
2023-03-29T11:18:57.299Z,7.80
2023-03-29T11:21:31.384Z,7.80
2023-03-29T11:24:16.719Z,7.80
2023-03-29T11:26:59.317Z,7.90
2023-03-29T11:29:31.942Z,7.90
2023-03-29T11:32:07.821Z,7.90
2023-03-29T11:34:45.483Z,7.90
2023-03-29T11:37:22.596Z,7.90
2023-03-29T11:40:02.282Z,7.90
2023-03-29T11:42:33.200Z,7.90
2023-03-29T11:45:05.648Z,7.90
2023-03-29T11:47:41.521Z,7.90
2023-03-29T11:50:18.450Z,7.90
2023-03-29T11:52:51.677Z,7.90
2023-03-29T11:55:23.722Z,8.00
2023-03-29T11:57:56.649Z,8.00
2023-03-29T12:00:28.929Z,8.00
2023-03-29T12:03:04.737Z,8.00
2023-03-29T12:05:36.011Z,8.10
2023-03-29T12:08:08.319Z,8.10
2023-03-29T12:10:38.845Z,8.10
2023-03-29T12:13:10.524Z,8.20
2023-03-29T12:15:44.778Z,8.20
2023-03-29T12:18:21.378Z,8.30
2023-03-29T12:20:53.922Z,8.30
2023-03-29T12:23:22.546Z,8.40
2023-03-29T12:25:58.206Z,8.40
2023-03-29T12:28:50.613Z,8.50
2023-03-29T12:31:25.550Z,8.50
2023-03-29T12:34:14.168Z,8.50
2023-03-29T12:37:01.976Z,8.60
2023-03-29T12:39:31.392Z,8.60
2023-03-29T12:42:08.274Z,8.60
2023-03-29T12:44:37.245Z,8.60
2023-03-29T12:47:05.422Z,8.70
2023-03-29T12:49:39.088Z,8.70
2023-03-29T12:52:16.152Z,8.70
2023-03-29T12:54:54.909Z,8.70
2023-03-29T12:57:28.900Z,8.70
2023-03-29T12:59:57.139Z,8.70
2023-03-29T13:02:36.996Z,8.70
2023-03-29T13:05:32.888Z,8.70
2023-03-29T13:08:11.526Z,8.70
2023-03-29T13:10:43.328Z,8.70
2023-03-29T13:13:19.957Z,8.70
2023-03-29T13:15:49.209Z,8.80
2023-03-29T13:18:36.173Z,8.90
2023-03-29T13:21:15.414Z,8.90
2023-03-29T13:23:54.278Z,8.90
2023-03-29T13:26:36.221Z,8.90
2023-03-29T13:29:32.473Z,9.00
2023-03-29T13:32:07.422Z,9.00
2023-03-29T13:34:43.259Z,9.00
2023-03-29T13:37:28.463Z,9.10
2023-03-29T13:39:57.138Z,9.20
2023-03-29T13:42:27.812Z,9.20
2023-03-29T13:45:14.638Z,9.20
2023-03-29T13:47:58.433Z,9.30
2023-03-29T13:50:39.352Z,9.40
2023-03-29T13:53:16.046Z,9.40
2023-03-29T13:55:51.008Z,9.50
2023-03-29T13:58:30.111Z,9.50
2023-03-29T14:01:03.493Z,9.60
2023-03-29T14:03:40.261Z,9.60
2023-03-29T14:06:10.526Z,9.60
2023-03-29T14:08:41.836Z,9.60
2023-03-29T14:11:23.119Z,9.60
2023-03-29T14:13:54.050Z,9.60
2023-03-29T14:16:22.997Z,9.70
2023-03-29T14:18:52.322Z,9.70
2023-03-29T14:21:22.141Z,9.70
2023-03-29T14:23:58.347Z,9.70
2023-03-29T14:26:31.960Z,9.80
2023-03-29T14:29:01.721Z,9.80
2023-03-29T14:31:33.535Z,9.80
2023-03-29T14:34:03.130Z,9.80
2023-03-29T14:36:33.479Z,9.80
2023-03-29T14:39:07.162Z,9.80
2023-03-29T14:41:38.077Z,9.80
2023-03-29T14:44:07.625Z,9.80
2023-03-29T14:46:36.845Z,9.80
2023-03-29T14:49:06.236Z,9.80
2023-03-29T14:51:34.749Z,9.80
2023-03-29T14:54:06.508Z,9.80
2023-03-29T14:56:35.006Z,9.80
2023-03-29T14:59:05.347Z,9.80
2023-03-29T15:01:33.496Z,9.80
2023-03-29T15:04:06.193Z,9.80
2023-03-29T15:06:39.551Z,9.80
2023-03-29T15:09:15.052Z,9.80
2023-03-29T15:11:43.154Z,9.90
2023-03-29T15:14:17.522Z,9.90
2023-03-29T15:16:48.284Z,9.90
2023-03-29T15:19:19.271Z,9.90
2023-03-29T15:21:49.525Z,9.90
2023-03-29T15:24:30.645Z,10.00
2023-03-29T15:27:04.218Z,10.00
2023-03-29T15:29:37.255Z,9.90
2023-03-29T15:32:05.535Z,10.00
2023-03-29T15:34:35.293Z,9.90
2023-03-29T15:37:04.111Z,9.90
2023-03-29T15:39:34.910Z,9.90
2023-03-29T15:42:02.984Z,9.90
2023-03-29T15:44:36.257Z,9.90
2023-03-29T15:47:04.695Z,9.90
2023-03-29T15:49:32.936Z,9.90
2023-03-29T15:52:00.922Z,9.90
2023-03-29T15:54:31.434Z,9.80
2023-03-29T15:57:04.128Z,9.90
2023-03-29T15:59:32.559Z,9.90
2023-03-29T16:02:01.224Z,9.80
2023-03-29T16:04:29.370Z,9.80
2023-03-29T16:06:57.775Z,9.80
2023-03-29T16:09:27.290Z,9.80
2023-03-29T16:11:55.337Z,9.80
2023-03-29T16:14:27.322Z,9.80
2023-03-29T16:16:57.155Z,9.80
2023-03-29T16:19:25.678Z,9.80
2023-03-29T16:21:54.915Z,9.80
2023-03-29T16:24:24.731Z,9.80
2023-03-29T16:26:55.466Z,9.90
2023-03-29T16:29:25.712Z,9.90
2023-03-29T16:31:54.228Z,9.90
2023-03-29T16:34:23.109Z,9.90
2023-03-29T16:36:52.944Z,9.90
2023-03-29T16:39:21.489Z,9.90
2023-03-29T16:41:50.354Z,9.90
2023-03-29T16:44:23.519Z,9.90
2023-03-29T16:46:57.369Z,9.90
2023-03-29T16:49:25.396Z,9.90
2023-03-29T16:51:53.348Z,10.00
2023-03-29T16:54:21.323Z,10.00
2023-03-29T16:56:49.309Z,10.00
2023-03-29T16:59:17.300Z,10.00
2023-03-29T17:01:45.475Z,10.00
2023-03-29T17:04:14.885Z,10.00
2023-03-29T17:06:43.044Z,10.00
2023-03-29T17:09:11.011Z,10.00
2023-03-29T17:11:39.530Z,10.00
2023-03-29T17:14:07.511Z,10.00
2023-03-29T17:16:36.742Z,9.90
2023-03-29T17:19:04.752Z,9.90
2023-03-29T17:21:34.078Z,9.90
2023-03-29T17:24:02.062Z,9.90
2023-03-29T17:26:30.068Z,9.90
2023-03-29T17:28:58.057Z,9.90
2023-03-29T17:31:26.239Z,9.90
2023-03-29T17:33:54.390Z,9.90
2023-03-29T17:36:24.275Z,9.80
2023-03-29T17:38:54.661Z,9.80
2023-03-29T17:41:22.894Z,9.80
2023-03-29T17:43:51.934Z,9.80
2023-03-29T17:46:22.808Z,9.80
2023-03-29T17:48:51.695Z,9.80
2023-03-29T17:51:20.018Z,9.80
2023-03-29T17:53:48.019Z,9.80
2023-03-29T17:56:17.572Z,9.80
2023-03-29T17:58:45.548Z,9.70
2023-03-29T18:01:14.537Z,9.70
2023-03-29T18:03:43.386Z,9.70
2023-03-29T18:06:11.527Z,9.70
2023-03-29T18:08:40.576Z,9.70
2023-03-29T18:11:11.556Z,9.70
2023-03-29T18:13:41.086Z,9.70
2023-03-29T18:16:10.475Z,9.70
2023-03-29T18:18:38.785Z,9.70
2023-03-29T18:21:10.078Z,9.70
2023-03-29T18:23:39.820Z,9.70
2023-03-29T18:26:09.423Z,9.70
2023-03-29T18:28:38.155Z,9.70
2023-03-29T18:31:07.493Z,9.70
2023-03-29T18:33:36.168Z,9.70
2023-03-29T18:36:05.096Z,9.70
2023-03-29T18:38:35.065Z,9.70
2023-03-29T18:41:04.017Z,9.70
2023-03-29T18:43:33.448Z,9.60
2023-03-29T18:46:02.091Z,9.60
2023-03-29T18:48:33.652Z,9.60
2023-03-29T18:51:02.769Z,9.60
2023-03-29T18:53:31.815Z,9.50
2023-03-29T18:56:01.094Z,9.50
2023-03-29T18:58:29.795Z,9.50
2023-03-29T19:01:02.732Z,9.50
2023-03-29T19:03:32.531Z,9.40
2023-03-29T19:06:01.259Z,9.40
2023-03-29T19:08:29.393Z,9.40
2023-03-29T19:11:02.844Z,9.30
2023-03-29T19:13:30.863Z,9.30
2023-03-29T19:15:59.028Z,9.30
2023-03-29T19:18:27.146Z,9.30
2023-03-29T19:20:56.600Z,9.30
2023-03-29T19:23:27.119Z,9.30
2023-03-29T19:25:56.356Z,9.20
2023-03-29T19:28:24.820Z,9.20
2023-03-29T19:30:53.221Z,9.20
2023-03-29T19:33:21.586Z,9.20
2023-03-29T19:35:50.953Z,9.20
2023-03-29T19:38:21.041Z,9.10
2023-03-29T19:40:50.393Z,9.10
2023-03-29T19:43:18.804Z,9.10
2023-03-29T19:45:48.489Z,9.10
2023-03-29T19:48:22.251Z,9.10
2023-03-29T19:50:51.497Z,9.10
2023-03-29T19:53:21.127Z,9.10
2023-03-29T19:55:49.523Z,9.10
2023-03-29T19:58:17.522Z,9.10
2023-03-29T20:00:46.562Z,9.00
2023-03-29T20:03:15.700Z,9.00
2023-03-29T20:05:43.923Z,9.00
2023-03-29T20:08:11.884Z,9.00
2023-03-29T20:10:41.504Z,9.00
2023-03-29T20:13:09.560Z,9.00
2023-03-29T20:15:37.521Z,9.00
2023-03-29T20:18:06.203Z,9.00
2023-03-29T20:20:35.623Z,9.00
2023-03-29T20:23:05.295Z,8.90
2023-03-29T20:25:33.698Z,8.90
2023-03-29T20:28:03.922Z,8.90
2023-03-29T20:30:31.908Z,8.90
2023-03-29T20:33:00.089Z,8.90
2023-03-29T20:35:28.172Z,8.90
2023-03-29T20:37:56.156Z,8.90
2023-03-29T20:40:24.735Z,8.90
2023-03-29T20:42:54.231Z,8.90
2023-03-29T20:45:23.660Z,8.90
2023-03-29T20:47:57.580Z,8.90
2023-03-29T20:50:29.575Z,8.90
2023-03-29T20:53:03.833Z,8.90
2023-03-29T20:55:33.289Z,8.90
2023-03-29T20:58:02.216Z,8.90
2023-03-29T21:00:33.602Z,8.90
2023-03-29T21:03:03.695Z,8.90
2023-03-29T21:05:32.881Z,8.90
2023-03-29T21:08:01.009Z,8.90
2023-03-29T21:10:29.640Z,8.90
2023-03-29T21:13:00.459Z,8.90
2023-03-29T21:15:30.767Z,8.90
2023-03-29T21:18:00.457Z,8.90
2023-03-29T21:20:28.828Z,8.90
2023-03-29T21:22:57.070Z,8.90
2023-03-29T21:25:25.112Z,8.90
2023-03-29T21:27:53.195Z,8.80
2023-03-29T21:30:21.300Z,8.80
2023-03-29T21:32:50.387Z,8.80
2023-03-29T21:35:20.002Z,8.80
2023-03-29T21:37:48.016Z,8.80
2023-03-29T21:40:16.015Z,8.90
2023-03-29T21:42:43.968Z,8.80
2023-03-29T21:45:12.447Z,8.80
2023-03-29T21:47:40.503Z,8.80
2023-03-29T21:50:09.406Z,8.80
2023-03-29T21:52:38.856Z,8.80
2023-03-29T21:55:07.436Z,8.80
2023-03-29T21:57:35.565Z,8.80
2023-03-29T22:00:05.175Z,8.90
2023-03-29T22:02:33.291Z,8.90
2023-03-29T22:05:03.342Z,8.90
2023-03-29T22:07:31.333Z,8.90
2023-03-29T22:10:04.200Z,8.90
2023-03-29T22:12:34.481Z,8.90
2023-03-29T22:15:02.526Z,8.90
2023-03-29T22:17:30.520Z,8.90
2023-03-29T22:19:58.535Z,8.90
2023-03-29T22:22:26.605Z,8.80
2023-03-29T22:24:54.939Z,8.90
2023-03-29T22:27:24.598Z,8.90
2023-03-29T22:29:52.562Z,8.90
2023-03-29T22:32:20.631Z,8.90
2023-03-29T22:34:48.680Z,8.90
2023-03-29T22:37:17.933Z,8.90
2023-03-29T22:39:46.446Z,8.90
2023-03-29T22:42:14.489Z,8.90
2023-03-29T22:44:43.824Z,8.90
2023-03-29T22:47:11.821Z,8.90
2023-03-29T22:49:40.017Z,8.90
2023-03-29T22:52:08.057Z,8.90
2023-03-29T22:54:36.143Z,8.90
2023-03-29T22:57:04.255Z,8.90
2023-03-29T22:59:32.294Z,8.90
2023-03-29T23:02:01.729Z,8.90
2023-03-29T23:04:29.810Z,8.90
2023-03-29T23:06:58.430Z,8.90
2023-03-29T23:09:26.384Z,8.90
2023-03-29T23:11:54.408Z,8.90
2023-03-29T23:14:22.732Z,8.90
2023-03-29T23:16:50.749Z,8.90
2023-03-29T23:19:20.079Z,8.90
2023-03-29T23:21:48.084Z,8.90
2023-03-29T23:24:18.983Z,8.90
2023-03-29T23:26:48.983Z,8.90
2023-03-29T23:29:16.996Z,8.90
2023-03-29T23:31:45.372Z,8.90
2023-03-29T23:34:13.417Z,8.90
2023-03-29T23:36:42.785Z,8.90
2023-03-29T23:39:10.979Z,8.90
2023-03-29T23:41:40.129Z,8.90
2023-03-29T23:44:08.111Z,8.90
2023-03-29T23:46:36.138Z,8.90
2023-03-29T23:49:04.120Z,8.90
2023-03-29T23:51:34.923Z,8.90
2023-03-29T23:54:04.390Z,8.90
2023-03-29T23:56:32.562Z,8.90
2023-03-29T23:59:01.487Z,9.00
